Dayton-Wright Brothers (MGY)

 

Airport Diagram
No Airport Diagram Available
Current Weather/Forecast (VFR Conditions)
METAR KMGY 211453Z AUTO 24012KT 10SM CLR 03/M01 A2984 RMK AO2 SLP113 T00281011 53002
TAF

Airport Information

All Charts
General
Chart Name View
TAKEOFF MINIMUMS
ALTERNATE MINIMUMS
TAKEOFF MINIMUMS
ALTERNATE MINIMUMS

Arrivals
Chart Name Download
DANEI THREE
DANEI THREE

Approaches
Chart Name Download
RNAV (GPS) RWY 02
RNAV (GPS) RWY 20
LOC RWY 20
NDB-A
RNAV (GPS) RWY 02
RNAV (GPS) RWY 20
LOC RWY 20
NDB-A


Airport Statistics
Departures Arrivals Local
All Collected Stats since June 2016: 21 7 1
2021 Stats: 0 0 0
January Stats: 0 0 0

Inbound Traffic (Arrivals) - 0

No inbound traffic.


Outbound Traffic (Departures) - 0

No outbound traffic.


Local Traffic (Pattern) - 0

No local traffic.